createdAt,value
2022-08-17T00:01:59.482Z,15.40
2022-08-17T00:17:06.523Z,15.53
2022-08-17T00:33:16.006Z,14.63
2022-08-17T00:47:18.268Z,14.93
2022-08-17T01:02:24.074Z,14.13
2022-08-17T01:17:29.124Z,14.20
2022-08-17T01:32:34.373Z,14.45
2022-08-17T01:47:39.662Z,15.65
2022-08-17T02:02:45.961Z,14.93
2022-08-17T02:17:54.680Z,14.55
2022-08-17T02:32:58.640Z,14.27
2022-08-17T02:48:04.356Z,14.43
2022-08-17T03:03:12.925Z,13.13
2022-08-17T03:18:25.774Z,15.53
2022-08-17T03:33:27.463Z,18.92
2022-08-17T03:48:50.635Z,18.17
2022-08-17T04:03:55.749Z,14.93
2022-08-17T04:19:01.455Z,15.75
2022-08-17T04:34:06.620Z,16.02
2022-08-17T04:49:12.762Z,18.12
2022-08-17T05:04:34.506Z,17.00
2022-08-17T05:19:28.602Z,18.52
2022-08-17T05:34:33.655Z,23.60
2022-08-17T05:49:38.770Z,25.08
2022-08-17T06:04:49.399Z,32.98
2022-08-17T06:19:58.313Z,28.70
2022-08-17T06:35:04.898Z,24.90
2022-08-17T07:20:33.764Z,11.43
2022-08-17T07:35:43.948Z,11.43
2022-08-17T07:50:52.285Z,12.77
2022-08-17T08:06:03.096Z,10.63
2022-08-17T08:21:11.325Z,8.73
2022-08-17T08:37:15.819Z,7.73
2022-08-17T08:51:47.066Z,8.27
2022-08-17T09:07:13.129Z,7.30
2022-08-17T09:22:43.676Z,7.70
2022-08-17T09:38:09.857Z,7.67
2022-08-17T09:53:15.179Z,6.80
2022-08-17T10:08:38.323Z,8.33
2022-08-17T10:24:03.866Z,6.80
2022-08-17T10:39:32.802Z,6.67
2022-08-17T10:54:40.846Z,8.30
2022-08-17T11:10:00.237Z,6.17
2022-08-17T11:25:16.926Z,7.70
2022-08-17T11:40:44.500Z,9.80
2022-08-17T11:55:58.668Z,5.50
2022-08-17T12:11:09.741Z,5.13
2022-08-17T12:26:19.495Z,5.90
2022-08-17T12:41:44.224Z,5.80
2022-08-17T12:56:49.618Z,5.53
2022-08-17T13:11:58.824Z,5.23
2022-08-17T13:42:57.895Z,4.97
2022-08-17T13:58:12.106Z,5.23
2022-08-17T14:13:17.113Z,4.00
2022-08-17T14:28:22.174Z,4.20
2022-08-17T14:43:27.714Z,4.80
2022-08-17T14:58:32.773Z,4.00
2022-08-17T15:13:38.272Z,3.97
2022-08-17T15:28:45.023Z,4.10
2022-08-17T15:43:52.025Z,3.90
2022-08-17T15:58:57.138Z,4.20
2022-08-17T16:14:02.134Z,5.00
2022-08-17T16:29:08.470Z,4.50
2022-08-17T16:44:15.900Z,4.20
2022-08-17T16:59:30.840Z,4.47
2022-08-17T17:14:32.469Z,4.43
2022-08-17T17:29:55.540Z,4.93
2022-08-17T17:45:09.629Z,8.40
2022-08-17T18:00:20.439Z,7.40
2022-08-17T18:15:41.440Z,8.43
2022-08-17T18:30:48.750Z,9.33
2022-08-17T18:45:57.442Z,10.40
2022-08-17T19:01:03.302Z,15.13
2022-08-17T19:16:23.575Z,10.57
2022-08-17T19:31:31.792Z,13.57
2022-08-17T19:46:56.171Z,23.27
2022-08-17T20:02:02.997Z,20.17
2022-08-17T20:17:09.715Z,15.20
2022-08-17T20:32:17.948Z,12.77
2022-08-17T20:47:38.117Z,12.90
2022-08-17T21:02:49.550Z,12.77
2022-08-17T21:18:09.367Z,12.27
2022-08-17T21:33:31.445Z,13.40
2022-08-17T21:48:48.311Z,13.87
2022-08-17T22:03:58.234Z,15.17
2022-08-17T22:19:05.355Z,14.53
2022-08-17T22:34:15.787Z,14.40
2022-08-17T22:49:29.371Z,15.33
2022-08-17T23:04:37.469Z,15.40
2022-08-17T23:19:42.892Z,14.90
2022-08-17T23:34:48.113Z,15.08
2022-08-17T23:49:54.220Z,15.63
